Jolyn — PJWG — position and weather

sailwx.info

Track history (hours):
 
Tides and Currents Weather Stations Pressure Air Temp Water Temp Dewpoint Dewpoint Depression Visibility Wind Speed Wind Dir Waves Ship Positions

Jolyn

Last reported at 2017-Oct-21 16:15 UTC. Time now 2017-Oct-22 10:18 UTC.
Position N 55°58' E 016°44'.

Length 90 m; draft 5.5 m.

Type: Cargo ship. MMSI: 306813000.

Date/timePositionNaut miles runAvg speedWind from/ knotsBaromVisibWave heightAir tempDewpointWater temp
2017-Oct-21 16:15N 55°58' E 016°44'2 9.4
2017-Oct-21 16:01N 55°56' E 016°41'5 9.2
2017-Oct-21 15:30N 55°52' E 016°36'5 9.3
2017-Oct-21 15:01N 55°49' E 016°31'10 9.6
2017-Oct-21 14:00N 55°41' E 016°20'5 9.8
2017-Oct-21 13:30N 55°38' E 016°14'510.1
2017-Oct-21 12:59N 55°34' E 016°08'2710.4
2017-Oct-21 10:24N 55°13' E 015°38'410.5
2017-Oct-21 10:00N 55°10' E 015°33'510.6
2017-Oct-21 09:30N 55°06' E 015°27'510.7
2017-Oct-21 09:00N 55°01' E 015°21'510.7
2017-Oct-21 08:30N 54°57' E 015°15'510.7
2017-Oct-21 08:00N 54°54' E 015°08'510.6
2017-Oct-21 07:30N 54°50' E 015°01'510.6
2017-Oct-21 07:00N 54°47' E 014°54'  
2017-Oct-17 14:54N 54°35' E 012°28'611.7
2017-Oct-17 14:24N 54°32' E 012°20'410.6
2017-Oct-17 14:00N 54°29' E 012°16'510.9
2017-Oct-17 13:30N 54°25' E 012°09'5111.5
2017-Oct-17 09:03N 54°33' E 010°42'312.2
2017-Oct-17 08:50N 54°33' E 010°38'412.0
2017-Oct-17 08:30N 54°32' E 010°31'711.8
2017-Oct-17 07:56N 54°30' E 010°20'611.6
2017-Oct-17 07:26N 54°25' E 010°13'4 4.3
2017-Oct-17 06:25N 54°22' E 010°09'3 3.8
2017-Oct-17 05:35N 54°22' E 010°03'1 8.8
2017-Oct-17 05:28N 54°22' E 010°01'4 8.0
2017-Oct-17 05:00N 54°21' E 009°55'4 8.3
2017-Oct-17 04:29N 54°22' E 009°48'2 3.5
2017-Oct-17 04:00N 54°21' E 009°46'2 4.9
2017-Oct-17 03:30N 54°19' E 009°43'4 7.3
2017-Oct-17 03:00N 54°17' E 009°38'1 2.1
2017-Oct-17 02:30N 54°16' E 009°38'1 2.4
2017-Oct-17 02:00N 54°15' E 009°37'4 8.0
2017-Oct-17 01:30N 54°12' E 009°32'4 7.4
2017-Oct-17 01:00N 54°10' E 009°26'1 2.1
2017-Oct-17 00:30N 54°10' E 009°25'4 7.6
2017-Oct-16 23:57N 54°07' E 009°20'4 8.7
2017-Oct-16 23:30N 54°03' E 009°18'4 8.5
2017-Oct-16 23:00N 53°59' E 009°17'4 8.6
2017-Oct-16 22:31N 53°56' E 009°12'3 5.7
2017-Oct-16 22:00N 53°54' E 009°09'2 3.3
2017-Oct-16 21:30N 53°53' E 009°06'1 1.7
2017-Oct-16 21:00N 53°53' E 009°05'3 5.3
2017-Oct-16 20:30N 53°51' E 009°01'713.9
2017-Oct-16 20:00N 53°50' E 008°49'612.4
2017-Oct-16 19:30N 53°54' E 008°41'713.3
2017-Oct-16 19:00N 53°58' E 008°32'713.7
2017-Oct-16 18:31N 53°59' E 008°21'612.9
2017-Oct-16 18:01N 53°59' E 008°10'712.7
2017-Oct-16 17:29N 53°57' E 007°58'712.7
2017-Oct-16 16:55N 53°56' E 007°46'612.3
2017-Oct-16 16:26N 53°55' E 007°37'612.2
2017-Oct-16 15:55N 53°53' E 007°26'511.8
2017-Oct-16 15:30N 53°52' E 007°18'611.6
2017-Oct-16 15:00N 53°50' E 007°09'611.4
2017-Oct-16 14:30N 53°49' E 006°59'1411.0
2017-Oct-16 13:14N 53°43' E 006°38'511.2
2017-Oct-16 12:45N 53°40' E 006°30'311.2
2017-Oct-16 12:30N 53°39' E 006°26'1711.3
2017-Oct-16 10:57N 53°29' E 006°50'2 0.7
2017-Oct-16 08:24N 53°27' E 006°50'0 0.0
2017-Oct-16 00:09N 53°27' E 006°50'0 0.0
2017-Oct-15 20:54N 53°27' E 006°50'0 0.1
2017-Oct-15 20:12N 53°27' E 006°50'0 0.0
2017-Oct-15 19:48N 53°27' E 006°50'0 0.0
2017-Oct-15 19:21N 53°27' E 006°50'0 0.0
2017-Oct-15 18:00N 53°27' E 006°50'0 0.0
2017-Oct-15 17:24N 53°27' E 006°50'0 0.0
2017-Oct-15 16:57N 53°27' E 006°50'0 0.0
2017-Oct-15 16:30N 53°27' E 006°50'0 0.0
2017-Oct-15 15:57N 53°27' E 006°50'0 0.0
2017-Oct-15 15:24N 53°27' E 006°50'0 0.0
2017-Oct-15 14:51N 53°27' E 006°50'0 0.0
2017-Oct-15 10:03N 53°27' E 006°50'0 0.0
2017-Oct-15 08:04N 53°27' E 006°50'0 0.8
2017-Oct-15 08:00N 53°27' E 006°50'15 7.4
2017-Oct-15 05:57N 53°37' E 006°30'6 9.1
2017-Oct-15 05:16N 53°39' E 006°20'3 9.9
2017-Oct-15 04:56N 53°42' E 006°20'9 7.9
2017-Oct-15 03:52N 53°50' E 006°27'7510.3
2017-Oct-14 20:36N 53°58' E 008°34'211.0
2017-Oct-14 20:26N 53°58' E 008°37'510.1
2017-Oct-14 19:57N 53°54' E 008°42'4 9.0
2017-Oct-14 19:31N 53°51' E 008°46'4 8.5
2017-Oct-14 19:00N 53°51' E 008°54'4 8.0
2017-Oct-14 18:31N 53°51' E 009°00'4 7.8
2017-Oct-14 18:00N 53°53' E 009°06'2 3.1
2017-Oct-14 17:30N 53°54' E 009°09'0 0.0
2017-Oct-14 17:00N 53°54' E 009°09'1 1.2
2017-Oct-14 16:30N 53°54' E 009°09'3 5.3
2017-Oct-14 16:00N 53°56' E 009°13'4 8.3
2017-Oct-14 15:30N 53°59' E 009°17'4 8.5
2017-Oct-14 15:00N 54°03' E 009°18'4 8.4
2017-Oct-14 14:30N 54°07' E 009°20'4 8.0
2017-Oct-14 14:00N 54°10' E 009°25'4 7.7
2017-Oct-14 13:30N 54°11' E 009°31'4 7.6
2017-Oct-14 13:00N 54°14' E 009°36'10 7.2
2017-Oct-14 11:39N 54°21' E 009°47'1 8.6
2017-Oct-14 11:30N 54°22' E 009°49'24 4.5
2017-Oct-14 06:08N 54°32' E 010°27'1 9.8
2017-Oct-14 06:00N 54°33' E 010°29'5 9.4
2017-Oct-14 05:30N 54°34' E 010°36'5 9.2
2017-Oct-14 05:00N 54°35' E 010°44'4 9.0
2017-Oct-14 04:30N 54°35' E 010°52'4 8.4
2017-Oct-14 04:00N 54°36' E 010°59'4 8.5
2017-Oct-14 03:30N 54°36' E 011°06'4 8.5
2017-Oct-14 03:00N 54°35' E 011°14'4 8.8
2017-Oct-14 02:30N 54°33' E 011°20'4 8.5
2017-Oct-14 02:00N 54°31' E 011°27'4 8.7
2017-Oct-14 01:30N 54°30' E 011°34'5 9.1
2017-Oct-14 01:00N 54°29' E 011°42'16 9.1
2017-Oct-13 23:17N 54°28' E 012°08'2 7.9
2017-Oct-13 23:00N 54°29' E 012°11'4 8.6
2017-Oct-13 22:30N 54°33' E 012°13'4 8.4
2017-Oct-13 22:00N 54°37' E 012°17'4 8.8
2017-Oct-13 21:30N 54°40' E 012°23'6 8.8
2017-Oct-13 20:51N 54°43' E 012°31'4 8.9
2017-Oct-13 20:24N 54°45' E 012°37'6 9.0
2017-Oct-13 19:44N 54°48' E 012°46'22 9.4
2017-Oct-13 17:22N 54°56' E 013°22'4 9.8
2017-Oct-13 16:55N 54°57' E 013°29'4 9.6
2017-Oct-13 16:30N 54°59' E 013°36'5 9.2
2017-Oct-13 15:55N 55°01' E 013°45'5 9.2
2017-Oct-13 15:25N 55°02' E 013°52'4 9.5
2017-Oct-13 14:59N 55°04' E 013°59'5 9.4
2017-Oct-13 14:27N 55°06' E 014°06'7 9.8
2017-Oct-13 13:41N 55°12' E 014°15'3 9.9
2017-Oct-13 13:26N 55°14' E 014°18'4 9.8
2017-Oct-13 13:00N 55°17' E 014°22'6 9.7
2017-Oct-13 12:22N 55°22' E 014°30'3 9.6
2017-Oct-13 12:00N 55°24' E 014°34'5 9.5
2017-Oct-13 11:29N 55°27' E 014°41'5 9.6
2017-Oct-13 11:00N 55°30' E 014°48'7 9.4
2017-Oct-13 10:14N 55°34' E 014°59'2 9.2
2017-Oct-13 09:59N 55°35' E 015°02'4 9.1
2017-Oct-13 09:30N 55°37' E 015°09'5 9.2
2017-Oct-13 09:00N 55°39' E 015°16'5 9.5
2017-Oct-13 08:30N 55°42' E 015°23'5 9.6
2017-Oct-13 08:00N 55°44' E 015°30'5 9.5
2017-Oct-13 07:30N 55°47' E 015°37'5 9.3
2017-Oct-13 07:00N 55°49' E 015°44'5 9.4
2017-Oct-13 06:30N 55°52' E 015°52'5 9.5
2017-Oct-13 06:00N 55°54' E 015°59'5 9.1
2017-Oct-13 05:30N 55°56' E 016°06'5 9.2
2017-Oct-13 05:00N 55°59' E 016°13'4 8.9
2017-Oct-13 04:30N 56°01' E 016°20'5 9.3
2017-Oct-13 04:00N 56°03' E 016°27'5 9.0
2017-Oct-13 03:30N 56°06' E 016°34'4 7.4
2017-Oct-13 03:00N 56°08' E 016°39'3 6.0
2017-Oct-13 02:30N 56°10' E 016°43'2 3.7
2017-Oct-13 01:56N 56°12' E 016°45'2 3.8
2017-Oct-13 01:30N 56°14' E 016°46'2 3.8
2017-Oct-13 01:00N 56°15' E 016°47'2 4.1
2017-Oct-13 00:30N 56°17' E 016°48'2 3.9
2017-Oct-12 23:59N 56°19' E 016°50'235 7.7
2017-Oct-11 17:24N 59°33' E 020°58'410.5
2017-Oct-11 17:00N 59°36' E 021°05'  
Track history (hours):
 
Tides and Currents Weather Stations Pressure Air Temp Water Temp Dewpoint Dewpoint Depression Visibility Wind Speed Wind Dir Waves Ship Positions

Jolyn

Last reported at 2017-Oct-21 16:15 UTC. Time now 2017-Oct-22 10:18 UTC.
Position N 55°58' E 016°44'.

Length 90 m; draft 5.5 m.

Type: Cargo ship. MMSI: 306813000.

Date/timePositionNaut miles runAvg speedWind from/ knotsBaromVisibWave heightAir tempDewpointWater temp
2017-Oct-21 16:15N 55°58' E 016°44'2 9.4
2017-Oct-21 16:01N 55°56' E 016°41'5 9.2
2017-Oct-21 15:30N 55°52' E 016°36'5 9.3
2017-Oct-21 15:01N 55°49' E 016°31'10 9.6
2017-Oct-21 14:00N 55°41' E 016°20'5 9.8
2017-Oct-21 13:30N 55°38' E 016°14'510.1
2017-Oct-21 12:59N 55°34' E 016°08'2710.4
2017-Oct-21 10:24N 55°13' E 015°38'410.5
2017-Oct-21 10:00N 55°10' E 015°33'510.6
2017-Oct-21 09:30N 55°06' E 015°27'510.7
2017-Oct-21 09:00N 55°01' E 015°21'510.7
2017-Oct-21 08:30N 54°57' E 015°15'510.7
2017-Oct-21 08:00N 54°54' E 015°08'510.6
2017-Oct-21 07:30N 54°50' E 015°01'510.6
2017-Oct-21 07:00N 54°47' E 014°54'  
2017-Oct-17 14:54N 54°35' E 012°28'611.7
2017-Oct-17 14:24N 54°32' E 012°20'410.6
2017-Oct-17 14:00N 54°29' E 012°16'510.9
2017-Oct-17 13:30N 54°25' E 012°09'5111.5
2017-Oct-17 09:03N 54°33' E 010°42'312.2
2017-Oct-17 08:50N 54°33' E 010°38'412.0
2017-Oct-17 08:30N 54°32' E 010°31'711.8
2017-Oct-17 07:56N 54°30' E 010°20'611.6
2017-Oct-17 07:26N 54°25' E 010°13'4 4.3
2017-Oct-17 06:25N 54°22' E 010°09'3 3.8
2017-Oct-17 05:35N 54°22' E 010°03'1 8.8
2017-Oct-17 05:28N 54°22' E 010°01'4 8.0
2017-Oct-17 05:00N 54°21' E 009°55'4 8.3
2017-Oct-17 04:29N 54°22' E 009°48'2 3.5
2017-Oct-17 04:00N 54°21' E 009°46'2 4.9
2017-Oct-17 03:30N 54°19' E 009°43'4 7.3
2017-Oct-17 03:00N 54°17' E 009°38'1 2.1
2017-Oct-17 02:30N 54°16' E 009°38'1 2.4
2017-Oct-17 02:00N 54°15' E 009°37'4 8.0
2017-Oct-17 01:30N 54°12' E 009°32'4 7.4
2017-Oct-17 01:00N 54°10' E 009°26'1 2.1
2017-Oct-17 00:30N 54°10' E 009°25'4 7.6
2017-Oct-16 23:57N 54°07' E 009°20'4 8.7
2017-Oct-16 23:30N 54°03' E 009°18'4 8.5
2017-Oct-16 23:00N 53°59' E 009°17'4 8.6
2017-Oct-16 22:31N 53°56' E 009°12'3 5.7
2017-Oct-16 22:00N 53°54' E 009°09'2 3.3
2017-Oct-16 21:30N 53°53' E 009°06'1 1.7
2017-Oct-16 21:00N 53°53' E 009°05'3 5.3
2017-Oct-16 20:30N 53°51' E 009°01'713.9
2017-Oct-16 20:00N 53°50' E 008°49'612.4
2017-Oct-16 19:30N 53°54' E 008°41'713.3
2017-Oct-16 19:00N 53°58' E 008°32'713.7
2017-Oct-16 18:31N 53°59' E 008°21'612.9
2017-Oct-16 18:01N 53°59' E 008°10'712.7
2017-Oct-16 17:29N 53°57' E 007°58'712.7
2017-Oct-16 16:55N 53°56' E 007°46'612.3
2017-Oct-16 16:26N 53°55' E 007°37'612.2
2017-Oct-16 15:55N 53°53' E 007°26'511.8
2017-Oct-16 15:30N 53°52' E 007°18'611.6
2017-Oct-16 15:00N 53°50' E 007°09'611.4
2017-Oct-16 14:30N 53°49' E 006°59'1411.0
2017-Oct-16 13:14N 53°43' E 006°38'511.2
2017-Oct-16 12:45N 53°40' E 006°30'311.2
2017-Oct-16 12:30N 53°39' E 006°26'1711.3
2017-Oct-16 10:57N 53°29' E 006°50'2 0.7
2017-Oct-16 08:24N 53°27' E 006°50'0 0.0
2017-Oct-16 00:09N 53°27' E 006°50'0 0.0
2017-Oct-15 20:54N 53°27' E 006°50'0 0.1
2017-Oct-15 20:12N 53°27' E 006°50'0 0.0
2017-Oct-15 19:48N 53°27' E 006°50'0 0.0
2017-Oct-15 19:21N 53°27' E 006°50'0 0.0
2017-Oct-15 18:00N 53°27' E 006°50'0 0.0
2017-Oct-15 17:24N 53°27' E 006°50'0 0.0
2017-Oct-15 16:57N 53°27' E 006°50'0 0.0
2017-Oct-15 16:30N 53°27' E 006°50'0 0.0
2017-Oct-15 15:57N 53°27' E 006°50'0 0.0
2017-Oct-15 15:24N 53°27' E 006°50'0 0.0
2017-Oct-15 14:51N 53°27' E 006°50'0 0.0
2017-Oct-15 10:03N 53°27' E 006°50'0 0.0
2017-Oct-15 08:04N 53°27' E 006°50'0 0.8
2017-Oct-15 08:00N 53°27' E 006°50'15 7.4
2017-Oct-15 05:57N 53°37' E 006°30'6 9.1
2017-Oct-15 05:16N 53°39' E 006°20'3 9.9
2017-Oct-15 04:56N 53°42' E 006°20'9 7.9
2017-Oct-15 03:52N 53°50' E 006°27'7510.3
2017-Oct-14 20:36N 53°58' E 008°34'211.0
2017-Oct-14 20:26N 53°58' E 008°37'510.1
2017-Oct-14 19:57N 53°54' E 008°42'4 9.0
2017-Oct-14 19:31N 53°51' E 008°46'4 8.5
2017-Oct-14 19:00N 53°51' E 008°54'4 8.0
2017-Oct-14 18:31N 53°51' E 009°00'4 7.8
2017-Oct-14 18:00N 53°53' E 009°06'2 3.1
2017-Oct-14 17:30N 53°54' E 009°09'0 0.0
2017-Oct-14 17:00N 53°54' E 009°09'1 1.2
2017-Oct-14 16:30N 53°54' E 009°09'3 5.3
2017-Oct-14 16:00N 53°56' E 009°13'4 8.3
2017-Oct-14 15:30N 53°59' E 009°17'4 8.5
2017-Oct-14 15:00N 54°03' E 009°18'4 8.4
2017-Oct-14 14:30N 54°07' E 009°20'4 8.0
2017-Oct-14 14:00N 54°10' E 009°25'4 7.7
2017-Oct-14 13:30N 54°11' E 009°31'4 7.6
2017-Oct-14 13:00N 54°14' E 009°36'10 7.2
2017-Oct-14 11:39N 54°21' E 009°47'1 8.6
2017-Oct-14 11:30N 54°22' E 009°49'24 4.5
2017-Oct-14 06:08N 54°32' E 010°27'1 9.8
2017-Oct-14 06:00N 54°33' E 010°29'5 9.4
2017-Oct-14 05:30N 54°34' E 010°36'5 9.2
2017-Oct-14 05:00N 54°35' E 010°44'4 9.0
2017-Oct-14 04:30N 54°35' E 010°52'4 8.4
2017-Oct-14 04:00N 54°36' E 010°59'4 8.5
2017-Oct-14 03:30N 54°36' E 011°06'4 8.5
2017-Oct-14 03:00N 54°35' E 011°14'4 8.8
2017-Oct-14 02:30N 54°33' E 011°20'4 8.5
2017-Oct-14 02:00N 54°31' E 011°27'4 8.7
2017-Oct-14 01:30N 54°30' E 011°34'5 9.1
2017-Oct-14 01:00N 54°29' E 011°42'16 9.1
2017-Oct-13 23:17N 54°28' E 012°08'2 7.9
2017-Oct-13 23:00N 54°29' E 012°11'4 8.6
2017-Oct-13 22:30N 54°33' E 012°13'4 8.4
2017-Oct-13 22:00N 54°37' E 012°17'4 8.8
2017-Oct-13 21:30N 54°40' E 012°23'6 8.8
2017-Oct-13 20:51N 54°43' E 012°31'4 8.9
2017-Oct-13 20:24N 54°45' E 012°37'6 9.0
2017-Oct-13 19:44N 54°48' E 012°46'22 9.4
2017-Oct-13 17:22N 54°56' E 013°22'4 9.8
2017-Oct-13 16:55N 54°57' E 013°29'4 9.6
2017-Oct-13 16:30N 54°59' E 013°36'5 9.2
2017-Oct-13 15:55N 55°01' E 013°45'5 9.2
2017-Oct-13 15:25N 55°02' E 013°52'4 9.5
2017-Oct-13 14:59N 55°04' E 013°59'5 9.4
2017-Oct-13 14:27N 55°06' E 014°06'7 9.8
2017-Oct-13 13:41N 55°12' E 014°15'3 9.9
2017-Oct-13 13:26N 55°14' E 014°18'4 9.8
2017-Oct-13 13:00N 55°17' E 014°22'6 9.7
2017-Oct-13 12:22N 55°22' E 014°30'3 9.6
2017-Oct-13 12:00N 55°24' E 014°34'5 9.5
2017-Oct-13 11:29N 55°27' E 014°41'5 9.6
2017-Oct-13 11:00N 55°30' E 014°48'7 9.4
2017-Oct-13 10:14N 55°34' E 014°59'2 9.2
2017-Oct-13 09:59N 55°35' E 015°02'4 9.1
2017-Oct-13 09:30N 55°37' E 015°09'5 9.2
2017-Oct-13 09:00N 55°39' E 015°16'5 9.5
2017-Oct-13 08:30N 55°42' E 015°23'5 9.6
2017-Oct-13 08:00N 55°44' E 015°30'5 9.5
2017-Oct-13 07:30N 55°47' E 015°37'5 9.3
2017-Oct-13 07:00N 55°49' E 015°44'5 9.4
2017-Oct-13 06:30N 55°52' E 015°52'5 9.5
2017-Oct-13 06:00N 55°54' E 015°59'5 9.1
2017-Oct-13 05:30N 55°56' E 016°06'5 9.2
2017-Oct-13 05:00N 55°59' E 016°13'4 8.9
2017-Oct-13 04:30N 56°01' E 016°20'5 9.3
2017-Oct-13 04:00N 56°03' E 016°27'5 9.0
2017-Oct-13 03:30N 56°06' E 016°34'4 7.4
2017-Oct-13 03:00N 56°08' E 016°39'3 6.0
2017-Oct-13 02:30N 56°10' E 016°43'2 3.7
2017-Oct-13 01:56N 56°12' E 016°45'2 3.8
2017-Oct-13 01:30N 56°14' E 016°46'2 3.8
2017-Oct-13 01:00N 56°15' E 016°47'2 4.1
2017-Oct-13 00:30N 56°17' E 016°48'2 3.9
2017-Oct-12 23:59N 56°19' E 016°50'235 7.7
2017-Oct-11 17:24N 59°33' E 020°58'410.5
2017-Oct-11 17:00N 59°36' E 021°05'  

Dump ship's entire track history